ノヴォシビルスク の空港の天気 - METARとTAF

トルマチェヴォ空港(ノヴォシビルスク) ( UNNT / OVB ) - ロシア ノヴォシビルスク
飛行場実況気象(Metar)
観測時間02/18 04:30 OMST (02/17 22:30 UTC)
風向・風速南 3m/s
視程10km以上
天気現象
なし
気温-6℃
湿度63%
気圧1003hPa
METARUNNT 172230Z 17003MPS CAVOK M06/M12 Q1003 R25/810160 R16/810160 NOSIG RMK QFE743/0990
過去の天気等 Google飛行場航空写真 Wunderground天気予報

過去48時間のMETAR

飛行場予報(TAF)
発表時間: 2/18 02:00 OMST (2/17 20:00 UTC)
予報対象時間: 18日3時 OMST ~ 19日3時 OMST
風向・風速南 6m/s 瞬間風速 13m/s
視程10km以上
全天の8割程度の積乱雲 雲底高度 610m
18日3時 OMST ~ 18日6時 OMST に一時的に
視程3100m
天気現象弱いしゅう雪 低い地吹雪
全天の8割程度の積乱雲 雲底高度 340m
18日6時 OMST ~ 19日3時 OMST に一時的に
視程1500m
天気現象しゅう雪雨 低い地吹雪
全天の8割程度の雲 雲底高度 150m
全天の8割程度の積乱雲 雲底高度 340m
18日23時 OMST ~ 19日1時 OMST に徐々に
風向・風速南西 8m/s 瞬間風速 15m/s
TAF UNNT 172000Z 1721/1821 17006G13MPS 9999 BKN020CB
TEMPO 1721/1724 3100 -SHSN DRSN BKN011CB
TEMPO 1800/1821 1500 SHSNRA DRSN BKN005 BKN011CB
BECMG 1817/1819 22008G15MPS